sensor_id;sensor_type;location;lat;lon;timestamp;temperature;humidity
11744;DHT22;5929;51.906;7.674;2023-09-19T00:00:56;16.20;99.90
11744;DHT22;5929;51.906;7.674;2023-09-19T00:03:25;16.20;99.90
11744;DHT22;5929;51.906;7.674;2023-09-19T00:05:55;16.10;99.90
11744;DHT22;5929;51.906;7.674;2023-09-19T00:08:22;16.10;99.90
11744;DHT22;5929;51.906;7.674;2023-09-19T00:10:48;16.10;99.90
11744;DHT22;5929;51.906;7.674;2023-09-19T00:13:15;16.00;99.90
11744;DHT22;5929;51.906;7.674;2023-09-19T00:15:44;16.00;99.90
11744;DHT22;5929;51.906;7.674;2023-09-19T00:18:14;16.00;99.90
11744;DHT22;5929;51.906;7.674;2023-09-19T00:20:45;15.90;99.90
11744;DHT22;5929;51.906;7.674;2023-09-19T00:23:17;15.90;99.90
11744;DHT22;5929;51.906;7.674;2023-09-19T00:25:44;15.90;99.90
11744;DHT22;5929;51.906;7.674;2023-09-19T00:28:11;15.90;99.90
11744;DHT22;5929;51.906;7.674;2023-09-19T00:30:38;15.80;99.90
11744;DHT22;5929;51.906;7.674;2023-09-19T00:33:05;15.80;99.90
11744;DHT22;5929;51.906;7.674;2023-09-19T00:35:33;15.90;99.90
11744;DHT22;5929;51.906;7.674;2023-09-19T00:38:00;15.80;99.90
11744;DHT22;5929;51.906;7.674;2023-09-19T00:40:28;15.90;99.90
11744;DHT22;5929;51.906;7.674;2023-09-19T00:42:57;16.00;99.90
11744;DHT22;5929;51.906;7.674;2023-09-19T00:45:25;16.00;99.90
11744;DHT22;5929;51.906;7.674;2023-09-19T00:47:53;16.00;99.90
11744;DHT22;5929;51.906;7.674;2023-09-19T00:50:24;16.00;99.90
11744;DHT22;5929;51.906;7.674;2023-09-19T00:52:54;16.10;99.90
11744;DHT22;5929;51.906;7.674;2023-09-19T00:55:24;16.10;99.90
11744;DHT22;5929;51.906;7.674;2023-09-19T00:57:52;16.10;99.90
11744;DHT22;5929;51.906;7.674;2023-09-19T01:00:21;16.10;99.90
11744;DHT22;5929;51.906;7.674;2023-09-19T01:02:49;16.10;99.90
11744;DHT22;5929;51.906;7.674;2023-09-19T01:05:16;16.10;99.90
11744;DHT22;5929;51.906;7.674;2023-09-19T01:07:44;16.20;99.90
11744;DHT22;5929;51.906;7.674;2023-09-19T01:10:18;16.20;99.90
11744;DHT22;5929;51.906;7.674;2023-09-19T01:12:54;16.20;99.90
11744;DHT22;5929;51.906;7.674;2023-09-19T01:15:28;16.20;99.90
11744;DHT22;5929;51.906;7.674;2023-09-19T01:18:03;16.20;99.90
11744;DHT22;5929;51.906;7.674;2023-09-19T01:20:40;16.10;99.90
11744;DHT22;5929;51.906;7.674;2023-09-19T01:23:17;16.10;99.90
11744;DHT22;5929;51.906;7.674;2023-09-19T01:26:06;16.10;99.90
11744;DHT22;5929;51.906;7.674;2023-09-19T01:28:45;16.10;99.90
11744;DHT22;5929;51.906;7.674;2023-09-19T01:31:21;16.10;99.90
11744;DHT22;5929;51.906;7.674;2023-09-19T01:33:56;16.00;99.90
11744;DHT22;5929;51.906;7.674;2023-09-19T01:36:31;16.10;99.90
11744;DHT22;5929;51.906;7.674;2023-09-19T01:39:00;16.10;99.90
11744;DHT22;5929;51.906;7.674;2023-09-19T01:41:52;16.00;99.90
11744;DHT22;5929;51.906;7.674;2023-09-19T01:44:25;16.00;99.90
11744;DHT22;5929;51.906;7.674;2023-09-19T01:46:59;16.00;99.90
11744;DHT22;5929;51.906;7.674;2023-09-19T01:49:36;16.10;99.90
11744;DHT22;5929;51.906;7.674;2023-09-19T01:52:09;16.00;99.90
11744;DHT22;5929;51.906;7.674;2023-09-19T01:54:45;16.10;99.90
11744;DHT22;5929;51.906;7.674;2023-09-19T01:57:17;16.10;99.90
11744;DHT22;5929;51.906;7.674;2023-09-19T02:00:01;16.10;99.90
11744;DHT22;5929;51.906;7.674;2023-09-19T02:02:34;16.10;99.90
11744;DHT22;5929;51.906;7.674;2023-09-19T02:05:01;16.10;99.90
11744;DHT22;5929;51.906;7.674;2023-09-19T02:07:29;16.10;99.90
11744;DHT22;5929;51.906;7.674;2023-09-19T02:09:57;16.10;99.90
11744;DHT22;5929;51.906;7.674;2023-09-19T02:12:25;16.10;99.90
11744;DHT22;5929;51.906;7.674;2023-09-19T02:14:51;16.10;99.90
11744;DHT22;5929;51.906;7.674;2023-09-19T02:17:18;16.00;99.90
11744;DHT22;5929;51.906;7.674;2023-09-19T02:19:46;16.00;99.90
11744;DHT22;5929;51.906;7.674;2023-09-19T02:22:13;16.00;99.90
11744;DHT22;5929;51.906;7.674;2023-09-19T02:24:41;15.90;99.90
11744;DHT22;5929;51.906;7.674;2023-09-19T02:27:08;15.90;99.90
11744;DHT22;5929;51.906;7.674;2023-09-19T02:29:38;15.90;99.90
11744;DHT22;5929;51.906;7.674;2023-09-19T02:32:05;15.90;99.90
11744;DHT22;5929;51.906;7.674;2023-09-19T02:34:31;15.80;99.90
11744;DHT22;5929;51.906;7.674;2023-09-19T02:37:03;15.80;99.90
11744;DHT22;5929;51.906;7.674;2023-09-19T02:39:31;15.80;99.90
11744;DHT22;5929;51.906;7.674;2023-09-19T02:41:58;15.70;99.90
11744;DHT22;5929;51.906;7.674;2023-09-19T02:44:25;15.70;99.90
11744;DHT22;5929;51.906;7.674;2023-09-19T02:46:53;15.70;99.90
11744;DHT22;5929;51.906;7.674;2023-09-19T02:49:19;15.70;99.90
11744;DHT22;5929;51.906;7.674;2023-09-19T02:51:46;15.60;99.90
11744;DHT22;5929;51.906;7.674;2023-09-19T02:54:15;15.50;99.90
11744;DHT22;5929;51.906;7.674;2023-09-19T02:56:43;15.50;99.90
11744;DHT22;5929;51.906;7.674;2023-09-19T02:59:10;15.40;99.90
11744;DHT22;5929;51.906;7.674;2023-09-19T03:01:37;15.40;99.90
11744;DHT22;5929;51.906;7.674;2023-09-19T03:04:06;15.40;99.90
11744;DHT22;5929;51.906;7.674;2023-09-19T03:06:34;15.40;99.90
11744;DHT22;5929;51.906;7.674;2023-09-19T03:09:01;15.30;99.90
11744;DHT22;5929;51.906;7.674;2023-09-19T03:11:33;15.30;99.90
11744;DHT22;5929;51.906;7.674;2023-09-19T03:13:59;15.20;99.90
11744;DHT22;5929;51.906;7.674;2023-09-19T03:16:26;15.20;99.90
11744;DHT22;5929;51.906;7.674;2023-09-19T03:18:53;15.20;99.90
11744;DHT22;5929;51.906;7.674;2023-09-19T03:21:20;15.10;99.90
11744;DHT22;5929;51.906;7.674;2023-09-19T03:23:47;15.10;99.90
11744;DHT22;5929;51.906;7.674;2023-09-19T03:26:14;15.00;99.90
11744;DHT22;5929;51.906;7.674;2023-09-19T03:28:42;14.90;99.90
11744;DHT22;5929;51.906;7.674;2023-09-19T03:31:11;14.90;99.90
11744;DHT22;5929;51.906;7.674;2023-09-19T03:33:40;14.90;99.90
11744;DHT22;5929;51.906;7.674;2023-09-19T03:36:07;14.80;99.90
11744;DHT22;5929;51.906;7.674;2023-09-19T03:38:35;14.80;99.90
11744;DHT22;5929;51.906;7.674;2023-09-19T03:41:02;14.80;99.90
11744;DHT22;5929;51.906;7.674;2023-09-19T03:43:29;14.70;99.90
11744;DHT22;5929;51.906;7.674;2023-09-19T03:46:01;14.70;99.90
11744;DHT22;5929;51.906;7.674;2023-09-19T03:48:29;14.70;99.90
11744;DHT22;5929;51.906;7.674;2023-09-19T03:50:58;14.70;99.90
11744;DHT22;5929;51.906;7.674;2023-09-19T03:53:26;14.70;99.90
11744;DHT22;5929;51.906;7.674;2023-09-19T03:55:52;14.60;99.90
11744;DHT22;5929;51.906;7.674;2023-09-19T03:58:19;14.60;99.90
11744;DHT22;5929;51.906;7.674;2023-09-19T04:00:46;14.60;99.90
11744;DHT22;5929;51.906;7.674;2023-09-19T04:03:15;14.60;99.90
11744;DHT22;5929;51.906;7.674;2023-09-19T04:05:46;14.60;99.90
11744;DHT22;5929;51.906;7.674;2023-09-19T04:08:13;14.60;99.90
11744;DHT22;5929;51.906;7.674;2023-09-19T04:10:42;14.60;99.90
11744;DHT22;5929;51.906;7.674;2023-09-19T04:13:08;14.60;99.90
11744;DHT22;5929;51.906;7.674;2023-09-19T04:15:36;14.60;99.90
11744;DHT22;5929;51.906;7.674;2023-09-19T04:18:06;14.50;99.90
11744;DHT22;5929;51.906;7.674;2023-09-19T04:20:34;14.50;99.90
11744;DHT22;5929;51.906;7.674;2023-09-19T04:23:01;14.50;99.90
11744;DHT22;5929;51.906;7.674;2023-09-19T04:25:28;14.50;99.90
11744;DHT22;5929;51.906;7.674;2023-09-19T04:27:55;14.50;99.90
11744;DHT22;5929;51.906;7.674;2023-09-19T04:30:21;14.40;99.90
11744;DHT22;5929;51.906;7.674;2023-09-19T04:32:48;14.40;99.90
11744;DHT22;5929;51.906;7.674;2023-09-19T04:35:17;14.40;99.90
11744;DHT22;5929;51.906;7.674;2023-09-19T04:37:45;14.30;99.90
11744;DHT22;5929;51.906;7.674;2023-09-19T04:40:15;14.30;99.90
11744;DHT22;5929;51.906;7.674;2023-09-19T04:42:43;14.30;99.90
11744;DHT22;5929;51.906;7.674;2023-09-19T04:45:11;14.20;99.90
11744;DHT22;5929;51.906;7.674;2023-09-19T04:47:38;14.20;99.90
11744;DHT22;5929;51.906;7.674;2023-09-19T04:50:07;14.20;99.90
11744;DHT22;5929;51.906;7.674;2023-09-19T04:52:38;14.20;99.90
11744;DHT22;5929;51.906;7.674;2023-09-19T04:55:08;14.20;99.90
11744;DHT22;5929;51.906;7.674;2023-09-19T04:57:35;14.10;99.90
11744;DHT22;5929;51.906;7.674;2023-09-19T05:00:02;14.10;99.90
11744;DHT22;5929;51.906;7.674;2023-09-19T05:02:32;14.10;99.90
11744;DHT22;5929;51.906;7.674;2023-09-19T05:05:00;14.00;99.90
11744;DHT22;5929;51.906;7.674;2023-09-19T05:07:27;14.00;99.90
11744;DHT22;5929;51.906;7.674;2023-09-19T05:09:53;14.00;99.90
11744;DHT22;5929;51.906;7.674;2023-09-19T05:12:22;14.00;99.90
11744;DHT22;5929;51.906;7.674;2023-09-19T05:14:49;14.00;99.90
11744;DHT22;5929;51.906;7.674;2023-09-19T05:17:15;14.00;99.90
11744;DHT22;5929;51.906;7.674;2023-09-19T05:19:43;14.00;99.90
11744;DHT22;5929;51.906;7.674;2023-09-19T05:22:11;14.00;99.90
11744;DHT22;5929;51.906;7.674;2023-09-19T05:24:39;14.00;99.90
11744;DHT22;5929;51.906;7.674;2023-09-19T05:27:06;14.00;99.90
11744;DHT22;5929;51.906;7.674;2023-09-19T05:29:35;14.00;99.90
11744;DHT22;5929;51.906;7.674;2023-09-19T05:32:01;14.00;99.90
11744;DHT22;5929;51.906;7.674;2023-09-19T05:34:29;13.90;99.90
11744;DHT22;5929;51.906;7.674;2023-09-19T05:36:56;14.00;99.90
11744;DHT22;5929;51.906;7.674;2023-09-19T05:39:25;14.00;99.90
11744;DHT22;5929;51.906;7.674;2023-09-19T05:41:51;14.00;99.90
11744;DHT22;5929;51.906;7.674;2023-09-19T05:44:18;14.00;99.90
11744;DHT22;5929;51.906;7.674;2023-09-19T05:46:46;14.00;99.90
11744;DHT22;5929;51.906;7.674;2023-09-19T05:49:13;14.00;99.90
11744;DHT22;5929;51.906;7.674;2023-09-19T05:51:41;14.10;99.90
11744;DHT22;5929;51.906;7.674;2023-09-19T05:54:08;14.10;99.90
11744;DHT22;5929;51.906;7.674;2023-09-19T05:56:36;14.10;99.90
11744;DHT22;5929;51.906;7.674;2023-09-19T05:59:03;14.20;99.90
11744;DHT22;5929;51.906;7.674;2023-09-19T06:01:30;14.20;99.90
11744;DHT22;5929;51.906;7.674;2023-09-19T06:03:59;14.20;99.90
11744;DHT22;5929;51.906;7.674;2023-09-19T06:06:26;14.30;99.90
11744;DHT22;5929;51.906;7.674;2023-09-19T06:08:53;14.30;99.90
11744;DHT22;5929;51.906;7.674;2023-09-19T06:11:20;14.40;99.90
11744;DHT22;5929;51.906;7.674;2023-09-19T06:13:47;14.50;99.90
11744;DHT22;5929;51.906;7.674;2023-09-19T06:16:13;14.50;99.90
11744;DHT22;5929;51.906;7.674;2023-09-19T06:18:43;14.60;99.90
11744;DHT22;5929;51.906;7.674;2023-09-19T06:21:12;14.60;99.90
11744;DHT22;5929;51.906;7.674;2023-09-19T06:23:39;14.60;99.90
11744;DHT22;5929;51.906;7.674;2023-09-19T06:26:06;14.70;99.90
11744;DHT22;5929;51.906;7.674;2023-09-19T06:28:33;14.70;99.90
11744;DHT22;5929;51.906;7.674;2023-09-19T06:31:02;14.70;99.90
11744;DHT22;5929;51.906;7.674;2023-09-19T06:33:28;14.70;99.90
11744;DHT22;5929;51.906;7.674;2023-09-19T06:35:56;14.70;99.90
11744;DHT22;5929;51.906;7.674;2023-09-19T06:38:27;14.70;99.90
11744;DHT22;5929;51.906;7.674;2023-09-19T06:40:54;14.80;99.90
11744;DHT22;5929;51.906;7.674;2023-09-19T06:43:21;14.70;99.90
11744;DHT22;5929;51.906;7.674;2023-09-19T06:45:47;14.70;99.90
11744;DHT22;5929;51.906;7.674;2023-09-19T06:48:16;14.80;99.90
11744;DHT22;5929;51.906;7.674;2023-09-19T06:50:43;14.80;99.90
11744;DHT22;5929;51.906;7.674;2023-09-19T06:53:10;14.80;99.90
11744;DHT22;5929;51.906;7.674;2023-09-19T06:55:38;14.80;99.90
11744;DHT22;5929;51.906;7.674;2023-09-19T06:58:05;14.90;99.90
11744;DHT22;5929;51.906;7.674;2023-09-19T07:00:33;14.90;99.90
11744;DHT22;5929;51.906;7.674;2023-09-19T07:03:03;14.90;99.90
11744;DHT22;5929;51.906;7.674;2023-09-19T07:05:36;14.90;99.90
11744;DHT22;5929;51.906;7.674;2023-09-19T07:08:04;14.90;99.90
11744;DHT22;5929;51.906;7.674;2023-09-19T07:10:31;15.00;99.90
11744;DHT22;5929;51.906;7.674;2023-09-19T07:13:01;14.90;99.90
11744;DHT22;5929;51.906;7.674;2023-09-19T07:15:32;15.00;99.90
11744;DHT22;5929;51.906;7.674;2023-09-19T07:18:02;15.10;99.90
11744;DHT22;5929;51.906;7.674;2023-09-19T07:20:29;15.10;99.90
11744;DHT22;5929;51.906;7.674;2023-09-19T07:22:57;15.20;99.90
11744;DHT22;5929;51.906;7.674;2023-09-19T07:25:26;15.30;99.90
11744;DHT22;5929;51.906;7.674;2023-09-19T07:27:55;15.40;99.90
11744;DHT22;5929;51.906;7.674;2023-09-19T07:30:23;15.40;99.90
11744;DHT22;5929;51.906;7.674;2023-09-19T07:32:50;15.40;99.90
11744;DHT22;5929;51.906;7.674;2023-09-19T07:35:20;15.50;99.90
11744;DHT22;5929;51.906;7.674;2023-09-19T07:37:46;15.60;99.90
11744;DHT22;5929;51.906;7.674;2023-09-19T07:40:14;15.70;99.90
11744;DHT22;5929;51.906;7.674;2023-09-19T07:42:41;15.70;99.90
11744;DHT22;5929;51.906;7.674;2023-09-19T07:45:10;15.80;99.90
11744;DHT22;5929;51.906;7.674;2023-09-19T07:47:44;15.90;99.90
11744;DHT22;5929;51.906;7.674;2023-09-19T07:50:12;15.90;99.90
11744;DHT22;5929;51.906;7.674;2023-09-19T07:52:39;15.90;99.90
11744;DHT22;5929;51.906;7.674;2023-09-19T07:55:06;16.00;99.90
11744;DHT22;5929;51.906;7.674;2023-09-19T07:57:36;16.00;99.90
11744;DHT22;5929;51.906;7.674;2023-09-19T08:00:04;16.10;99.90
11744;DHT22;5929;51.906;7.674;2023-09-19T08:02:34;16.10;99.90
11744;DHT22;5929;51.906;7.674;2023-09-19T08:05:08;16.20;99.90
11744;DHT22;5929;51.906;7.674;2023-09-19T08:07:36;16.20;99.90
11744;DHT22;5929;51.906;7.674;2023-09-19T08:10:04;16.20;99.90
11744;DHT22;5929;51.906;7.674;2023-09-19T08:12:33;16.20;99.90
11744;DHT22;5929;51.906;7.674;2023-09-19T08:15:01;16.30;99.90
11744;DHT22;5929;51.906;7.674;2023-09-19T08:17:29;16.40;99.90
11744;DHT22;5929;51.906;7.674;2023-09-19T08:20:00;16.40;99.90
11744;DHT22;5929;51.906;7.674;2023-09-19T08:22:30;16.40;99.90
11744;DHT22;5929;51.906;7.674;2023-09-19T08:24:57;16.50;99.90
11744;DHT22;5929;51.906;7.674;2023-09-19T08:27:24;16.50;99.90
11744;DHT22;5929;51.906;7.674;2023-09-19T08:29:53;16.50;99.90
11744;DHT22;5929;51.906;7.674;2023-09-19T08:32:20;16.60;99.90
11744;DHT22;5929;51.906;7.674;2023-09-19T08:34:49;16.60;99.90
11744;DHT22;5929;51.906;7.674;2023-09-19T08:37:16;16.60;99.90
11744;DHT22;5929;51.906;7.674;2023-09-19T08:39:45;16.60;99.90
11744;DHT22;5929;51.906;7.674;2023-09-19T08:42:12;16.70;99.90
11744;DHT22;5929;51.906;7.674;2023-09-19T08:44:39;16.80;99.90
11744;DHT22;5929;51.906;7.674;2023-09-19T08:47:10;16.80;99.90
11744;DHT22;5929;51.906;7.674;2023-09-19T08:49:47;16.80;99.90
11744;DHT22;5929;51.906;7.674;2023-09-19T08:52:27;16.80;99.90
11744;DHT22;5929;51.906;7.674;2023-09-19T08:54:59;16.80;99.90
11744;DHT22;5929;51.906;7.674;2023-09-19T08:57:29;16.90;99.90
11744;DHT22;5929;51.906;7.674;2023-09-19T08:59:57;16.90;99.90
11744;DHT22;5929;51.906;7.674;2023-09-19T09:02:26;16.90;99.90
11744;DHT22;5929;51.906;7.674;2023-09-19T09:04:55;16.90;99.90
11744;DHT22;5929;51.906;7.674;2023-09-19T09:07:23;16.80;99.90
11744;DHT22;5929;51.906;7.674;2023-09-19T09:09:51;16.90;99.90
11744;DHT22;5929;51.906;7.674;2023-09-19T09:12:19;16.80;99.90
11744;DHT22;5929;51.906;7.674;2023-09-19T09:14:46;16.90;99.90
11744;DHT22;5929;51.906;7.674;2023-09-19T09:17:14;17.00;99.90
11744;DHT22;5929;51.906;7.674;2023-09-19T09:19:44;17.00;99.90
11744;DHT22;5929;51.906;7.674;2023-09-19T09:22:11;17.10;99.90
11744;DHT22;5929;51.906;7.674;2023-09-19T09:24:51;17.20;99.90
11744;DHT22;5929;51.906;7.674;2023-09-19T09:27:20;17.20;99.90
11744;DHT22;5929;51.906;7.674;2023-09-19T09:29:50;17.30;99.90
11744;DHT22;5929;51.906;7.674;2023-09-19T09:32:22;17.30;99.90
11744;DHT22;5929;51.906;7.674;2023-09-19T09:34:53;17.40;99.90
11744;DHT22;5929;51.906;7.674;2023-09-19T09:37:20;17.50;99.90
11744;DHT22;5929;51.906;7.674;2023-09-19T09:39:52;17.60;99.90
11744;DHT22;5929;51.906;7.674;2023-09-19T09:42:34;17.60;99.90
11744;DHT22;5929;51.906;7.674;2023-09-19T09:45:15;17.80;99.90
11744;DHT22;5929;51.906;7.674;2023-09-19T09:47:43;17.90;99.90
11744;DHT22;5929;51.906;7.674;2023-09-19T09:50:27;18.10;99.90
11744;DHT22;5929;51.906;7.674;2023-09-19T09:53:23;18.00;99.90
11744;DHT22;5929;51.906;7.674;2023-09-19T09:56:01;17.90;99.90
11744;DHT22;5929;51.906;7.674;2023-09-19T09:58:32;18.10;99.90
11744;DHT22;5929;51.906;7.674;2023-09-19T10:01:01;18.20;99.90
11744;DHT22;5929;51.906;7.674;2023-09-19T10:03:35;18.30;99.90
11744;DHT22;5929;51.906;7.674;2023-09-19T10:06:10;18.30;99.90
11744;DHT22;5929;51.906;7.674;2023-09-19T10:09:01;18.40;99.90
11744;DHT22;5929;51.906;7.674;2023-09-19T10:11:41;18.60;99.90
11744;DHT22;5929;51.906;7.674;2023-09-19T10:14:12;18.50;99.90
11744;DHT22;5929;51.906;7.674;2023-09-19T10:16:46;18.60;99.90
11744;DHT22;5929;51.906;7.674;2023-09-19T10:19:16;18.70;99.90
11744;DHT22;5929;51.906;7.674;2023-09-19T10:21:46;18.60;99.90
11744;DHT22;5929;51.906;7.674;2023-09-19T10:24:15;18.60;99.90
11744;DHT22;5929;51.906;7.674;2023-09-19T10:26:44;18.60;99.90
11744;DHT22;5929;51.906;7.674;2023-09-19T10:29:13;18.70;99.90
11744;DHT22;5929;51.906;7.674;2023-09-19T10:31:42;18.90;99.90
11744;DHT22;5929;51.906;7.674;2023-09-19T10:34:14;18.90;99.90
11744;DHT22;5929;51.906;7.674;2023-09-19T10:36:45;18.90;99.90
11744;DHT22;5929;51.906;7.674;2023-09-19T10:39:14;18.90;99.90
11744;DHT22;5929;51.906;7.674;2023-09-19T10:41:49;19.00;99.90
11744;DHT22;5929;51.906;7.674;2023-09-19T10:44:21;19.10;99.90
11744;DHT22;5929;51.906;7.674;2023-09-19T10:46:51;19.20;99.90
11744;DHT22;5929;51.906;7.674;2023-09-19T10:49:19;19.10;99.90
11744;DHT22;5929;51.906;7.674;2023-09-19T10:51:47;19.20;99.90
11744;DHT22;5929;51.906;7.674;2023-09-19T10:54:17;19.20;99.90
11744;DHT22;5929;51.906;7.674;2023-09-19T10:56:49;19.10;99.90
11744;DHT22;5929;51.906;7.674;2023-09-19T10:59:18;19.30;99.90
11744;DHT22;5929;51.906;7.674;2023-09-19T11:01:49;19.80;99.90
11744;DHT22;5929;51.906;7.674;2023-09-19T11:04:25;20.00;99.90
11744;DHT22;5929;51.906;7.674;2023-09-19T11:07:00;20.00;99.90
11744;DHT22;5929;51.906;7.674;2023-09-19T11:09:43;20.10;99.90
11744;DHT22;5929;51.906;7.674;2023-09-19T11:12:11;21.10;99.90
11744;DHT22;5929;51.906;7.674;2023-09-19T11:14:40;21.70;99.90
11744;DHT22;5929;51.906;7.674;2023-09-19T11:17:43;22.40;99.90
11744;DHT22;5929;51.906;7.674;2023-09-19T11:20:23;22.90;99.90
11744;DHT22;5929;51.906;7.674;2023-09-19T11:23:24;22.40;99.90
11744;DHT22;5929;51.906;7.674;2023-09-19T11:25:53;22.10;99.90
11744;DHT22;5929;51.906;7.674;2023-09-19T11:28:30;22.50;99.90
11744;DHT22;5929;51.906;7.674;2023-09-19T11:30:57;22.00;99.90
11744;DHT22;5929;51.906;7.674;2023-09-19T11:33:27;21.40;99.90
11744;DHT22;5929;51.906;7.674;2023-09-19T11:35:59;21.10;99.90
11744;DHT22;5929;51.906;7.674;2023-09-19T11:38:57;20.90;99.90
11744;DHT22;5929;51.906;7.674;2023-09-19T11:41:40;21.20;99.90
11744;DHT22;5929;51.906;7.674;2023-09-19T11:44:32;21.40;99.90
11744;DHT22;5929;51.906;7.674;2023-09-19T11:47:00;21.20;99.90
11744;DHT22;5929;51.906;7.674;2023-09-19T11:49:31;21.90;99.90
11744;DHT22;5929;51.906;7.674;2023-09-19T11:52:00;22.20;99.90
11744;DHT22;5929;51.906;7.674;2023-09-19T11:54:31;22.90;99.90
11744;DHT22;5929;51.906;7.674;2023-09-19T11:56:59;23.10;99.90
11744;DHT22;5929;51.906;7.674;2023-09-19T11:59:27;23.40;99.90
11744;DHT22;5929;51.906;7.674;2023-09-19T12:01:55;23.70;99.90
11744;DHT22;5929;51.906;7.674;2023-09-19T12:04:38;23.80;99.90
11744;DHT22;5929;51.906;7.674;2023-09-19T12:07:07;23.70;99.90
11744;DHT22;5929;51.906;7.674;2023-09-19T12:09:39;23.30;99.90
11744;DHT22;5929;51.906;7.674;2023-09-19T12:12:07;23.00;99.90
11744;DHT22;5929;51.906;7.674;2023-09-19T12:14:34;22.60;99.90
11744;DHT22;5929;51.906;7.674;2023-09-19T12:17:01;22.50;99.90
11744;DHT22;5929;51.906;7.674;2023-09-19T12:19:29;22.10;99.90
11744;DHT22;5929;51.906;7.674;2023-09-19T12:21:58;21.70;99.90
11744;DHT22;5929;51.906;7.674;2023-09-19T12:24:30;21.20;99.90
11744;DHT22;5929;51.906;7.674;2023-09-19T12:27:02;20.90;99.90
11744;DHT22;5929;51.906;7.674;2023-09-19T12:29:31;20.70;99.90
11744;DHT22;5929;51.906;7.674;2023-09-19T12:32:00;20.60;99.90
11744;DHT22;5929;51.906;7.674;2023-09-19T12:34:31;20.70;99.90
11744;DHT22;5929;51.906;7.674;2023-09-19T12:37:06;21.00;99.90
11744;DHT22;5929;51.906;7.674;2023-09-19T12:39:37;21.50;99.90
11744;DHT22;5929;51.906;7.674;2023-09-19T12:42:07;21.60;99.90
11744;DHT22;5929;51.906;7.674;2023-09-19T12:44:36;21.60;99.90
11744;DHT22;5929;51.906;7.674;2023-09-19T12:47:09;21.60;99.90
11744;DHT22;5929;51.906;7.674;2023-09-19T12:50:04;22.00;99.90
11744;DHT22;5929;51.906;7.674;2023-09-19T12:52:24;22.40;99.90
11744;DHT22;5929;51.906;7.674;2023-09-19T12:54:51;22.60;99.90
11744;DHT22;5929;51.906;7.674;2023-09-19T12:57:23;22.00;99.90
11744;DHT22;5929;51.906;7.674;2023-09-19T12:59:52;21.60;99.90
11744;DHT22;5929;51.906;7.674;2023-09-19T13:02:19;21.30;99.90
11744;DHT22;5929;51.906;7.674;2023-09-19T13:04:52;21.20;99.90
11744;DHT22;5929;51.906;7.674;2023-09-19T13:07:41;21.30;99.90
11744;DHT22;5929;51.906;7.674;2023-09-19T13:10:12;21.10;99.90
11744;DHT22;5929;51.906;7.674;2023-09-19T13:12:43;20.90;99.90
11744;DHT22;5929;51.906;7.674;2023-09-19T13:15:14;20.70;99.90
11744;DHT22;5929;51.906;7.674;2023-09-19T13:17:44;20.70;99.90
11744;DHT22;5929;51.906;7.674;2023-09-19T13:20:22;20.80;99.90
11744;DHT22;5929;51.906;7.674;2023-09-19T13:22:54;20.90;99.90
11744;DHT22;5929;51.906;7.674;2023-09-19T13:25:26;20.80;99.90
11744;DHT22;5929;51.906;7.674;2023-09-19T13:27:56;21.00;99.90
11744;DHT22;5929;51.906;7.674;2023-09-19T13:30:27;21.20;99.90
11744;DHT22;5929;51.906;7.674;2023-09-19T13:33:05;21.40;99.90
11744;DHT22;5929;51.906;7.674;2023-09-19T13:35:32;21.60;99.90
11744;DHT22;5929;51.906;7.674;2023-09-19T13:38:00;22.00;99.90
11744;DHT22;5929;51.906;7.674;2023-09-19T13:40:27;22.10;99.90
11744;DHT22;5929;51.906;7.674;2023-09-19T13:42:56;22.00;99.90
11744;DHT22;5929;51.906;7.674;2023-09-19T13:45:23;21.80;99.90
11744;DHT22;5929;51.906;7.674;2023-09-19T13:47:52;21.70;99.90
11744;DHT22;5929;51.906;7.674;2023-09-19T13:50:20;21.70;99.90
11744;DHT22;5929;51.906;7.674;2023-09-19T13:52:49;21.50;99.90
11744;DHT22;5929;51.906;7.674;2023-09-19T13:55:18;21.50;99.90
11744;DHT22;5929;51.906;7.674;2023-09-19T13:57:46;21.30;99.90
11744;DHT22;5929;51.906;7.674;2023-09-19T14:00:15;21.40;99.90
11744;DHT22;5929;51.906;7.674;2023-09-19T14:02:43;21.30;99.90
11744;DHT22;5929;51.906;7.674;2023-09-19T14:05:11;21.40;99.90
11744;DHT22;5929;51.906;7.674;2023-09-19T14:07:40;21.30;99.90
11744;DHT22;5929;51.906;7.674;2023-09-19T14:10:08;21.20;99.90
11744;DHT22;5929;51.906;7.674;2023-09-19T14:12:37;21.20;99.90
11744;DHT22;5929;51.906;7.674;2023-09-19T14:15:07;21.30;99.90
11744;DHT22;5929;51.906;7.674;2023-09-19T14:17:34;21.30;99.90
11744;DHT22;5929;51.906;7.674;2023-09-19T14:20:00;21.20;99.90
11744;DHT22;5929;51.906;7.674;2023-09-19T14:22:27;21.20;99.90
11744;DHT22;5929;51.906;7.674;2023-09-19T14:24:54;21.10;99.90
11744;DHT22;5929;51.906;7.674;2023-09-19T14:27:21;20.90;99.90
11744;DHT22;5929;51.906;7.674;2023-09-19T14:29:49;20.80;99.90
11744;DHT22;5929;51.906;7.674;2023-09-19T14:32:16;20.70;99.90
11744;DHT22;5929;51.906;7.674;2023-09-19T14:34:43;20.60;99.90
11744;DHT22;5929;51.906;7.674;2023-09-19T14:37:10;20.70;99.90
11744;DHT22;5929;51.906;7.674;2023-09-19T14:39:36;20.60;99.90
11744;DHT22;5929;51.906;7.674;2023-09-19T14:42:04;20.60;99.90
11744;DHT22;5929;51.906;7.674;2023-09-19T14:44:31;20.50;99.90
11744;DHT22;5929;51.906;7.674;2023-09-19T14:46:59;20.30;99.90
11744;DHT22;5929;51.906;7.674;2023-09-19T14:49:26;20.10;99.90
11744;DHT22;5929;51.906;7.674;2023-09-19T14:51:52;20.00;99.90
11744;DHT22;5929;51.906;7.674;2023-09-19T14:54:19;19.90;99.90
11744;DHT22;5929;51.906;7.674;2023-09-19T14:56:46;19.90;99.90
11744;DHT22;5929;51.906;7.674;2023-09-19T14:59:19;19.80;99.90
11744;DHT22;5929;51.906;7.674;2023-09-19T15:01:46;19.80;99.90
11744;DHT22;5929;51.906;7.674;2023-09-19T15:04:17;19.80;99.90
11744;DHT22;5929;51.906;7.674;2023-09-19T15:06:44;19.70;99.90
11744;DHT22;5929;51.906;7.674;2023-09-19T15:09:12;19.80;99.90
11744;DHT22;5929;51.906;7.674;2023-09-19T15:11:39;19.70;99.90
11744;DHT22;5929;51.906;7.674;2023-09-19T15:14:06;19.70;99.90
11744;DHT22;5929;51.906;7.674;2023-09-19T15:16:32;19.60;99.90
11744;DHT22;5929;51.906;7.674;2023-09-19T15:19:01;19.70;99.90
11744;DHT22;5929;51.906;7.674;2023-09-19T15:21:29;19.60;99.90
11744;DHT22;5929;51.906;7.674;2023-09-19T15:23:56;19.80;99.90
11744;DHT22;5929;51.906;7.674;2023-09-19T15:26:22;19.80;99.90
11744;DHT22;5929;51.906;7.674;2023-09-19T15:28:51;19.90;99.90
11744;DHT22;5929;51.906;7.674;2023-09-19T15:31:20;19.90;99.90
11744;DHT22;5929;51.906;7.674;2023-09-19T15:33:46;19.90;99.90
11744;DHT22;5929;51.906;7.674;2023-09-19T15:36:14;19.90;99.90
11744;DHT22;5929;51.906;7.674;2023-09-19T15:38:58;19.90;99.90
11744;DHT22;5929;51.906;7.674;2023-09-19T15:41:27;20.10;99.90
11744;DHT22;5929;51.906;7.674;2023-09-19T15:43:54;20.30;99.90
11744;DHT22;5929;51.906;7.674;2023-09-19T15:46:21;20.40;99.90
11744;DHT22;5929;51.906;7.674;2023-09-19T15:48:48;20.60;99.90
11744;DHT22;5929;51.906;7.674;2023-09-19T15:51:15;20.90;99.90
11744;DHT22;5929;51.906;7.674;2023-09-19T15:53:44;21.00;99.90
11744;DHT22;5929;51.906;7.674;2023-09-19T15:56:14;21.20;99.90
11744;DHT22;5929;51.906;7.674;2023-09-19T15:58:43;21.50;99.90
11744;DHT22;5929;51.906;7.674;2023-09-19T16:01:11;21.70;99.90